createdAt,value
2022-10-25T00:00:24.313Z,19.41
2022-10-25T00:02:53.490Z,19.41
2022-10-25T00:05:21.350Z,19.36
2022-10-25T00:07:49.207Z,19.37
2022-10-25T00:10:18.324Z,19.27
2022-10-25T00:12:51.021Z,19.23
2022-10-25T00:15:19.049Z,19.20
2022-10-25T00:17:46.893Z,19.00
2022-10-25T00:20:16.158Z,19.05
2022-10-25T00:22:44.062Z,19.00
2022-10-25T00:25:12.056Z,18.92
2022-10-25T00:27:39.742Z,18.94
2022-10-25T00:30:08.699Z,18.95
2022-10-25T00:32:37.449Z,18.93
2022-10-25T00:35:05.669Z,19.00
2022-10-25T00:37:35.060Z,19.05
2022-10-25T00:40:02.941Z,19.00
2022-10-25T00:42:30.651Z,19.08
2022-10-25T00:45:01.595Z,19.11
2022-10-25T00:47:46.962Z,19.16
2022-10-25T00:50:23.898Z,19.11
2022-10-25T00:52:53.722Z,19.12
2022-10-25T00:55:22.306Z,19.05
2022-10-25T00:57:52.584Z,19.19
2022-10-25T01:00:20.292Z,19.19
2022-10-25T01:02:48.055Z,19.18
2022-10-25T01:05:16.327Z,19.24
2022-10-25T01:07:44.187Z,19.08
2022-10-25T01:10:13.465Z,19.17
2022-10-25T01:12:41.151Z,19.23
2022-10-25T01:15:10.042Z,19.24
2022-10-25T01:17:42.907Z,19.01
2022-10-25T01:20:42.003Z,19.24
2022-10-25T01:23:18.175Z,19.20
2022-10-25T01:26:07.721Z,19.26
2022-10-25T01:28:38.376Z,19.23
2022-10-25T01:31:13.563Z,19.19
2022-10-25T01:33:41.793Z,19.24
2022-10-25T01:38:47.928Z,19.24
2022-10-25T01:41:19.511Z,19.24
2022-10-25T01:43:52.503Z,19.23
2022-10-25T01:46:23.166Z,19.22
2022-10-25T01:48:51.962Z,18.90
2022-10-25T01:51:19.820Z,19.21
2022-10-25T01:53:48.260Z,19.22
2022-10-25T01:56:19.323Z,19.19
2022-10-25T01:58:50.051Z,18.93
2022-10-25T02:01:23.086Z,19.10
2022-10-25T02:03:52.287Z,19.14
2022-10-25T02:06:26.600Z,19.15
2022-10-25T02:08:58.043Z,19.18
2022-10-25T02:11:26.429Z,19.11
2022-10-25T02:14:00.141Z,19.20
2022-10-25T02:16:30.391Z,19.19
2022-10-25T02:19:00.156Z,19.11
2022-10-25T02:21:27.817Z,19.20
2022-10-25T02:23:55.707Z,19.20
2022-10-25T02:26:23.400Z,19.19
2022-10-25T02:28:51.152Z,19.21
2022-10-25T02:31:20.568Z,19.18
2022-10-25T02:33:49.651Z,19.18
2022-10-25T02:36:19.042Z,19.19
2022-10-25T02:38:46.833Z,19.22
2022-10-25T02:41:14.467Z,19.21
2022-10-25T02:43:42.215Z,19.18
2022-10-25T02:46:10.674Z,19.19
2022-10-25T02:48:38.648Z,19.19
2022-10-25T02:51:07.901Z,19.19
2022-10-25T02:53:35.781Z,19.21
2022-10-25T02:56:03.839Z,19.19
2022-10-25T02:58:32.095Z,19.15
2022-10-25T03:01:00.123Z,19.19
2022-10-25T03:03:28.135Z,19.19
2022-10-25T03:05:55.958Z,19.21
2022-10-25T03:08:25.067Z,19.16
2022-10-25T03:10:52.955Z,19.20
2022-10-25T03:13:20.613Z,19.19
2022-10-25T03:15:48.480Z,19.15
2022-10-25T03:18:16.216Z,19.20
2022-10-25T03:20:43.981Z,19.21
2022-10-25T03:23:11.849Z,19.20
2022-10-25T03:25:41.008Z,19.20
2022-10-25T03:28:08.689Z,19.15
2022-10-25T03:30:36.822Z,19.16
2022-10-25T03:33:04.637Z,19.25
2022-10-25T03:35:32.302Z,18.63
2022-10-25T03:37:59.986Z,19.22
2022-10-25T03:40:27.846Z,19.26
2022-10-25T03:42:56.852Z,19.25
2022-10-25T03:45:24.602Z,19.24
2022-10-25T03:47:52.250Z,19.23
2022-10-25T03:50:20.042Z,19.21
2022-10-25T03:52:47.703Z,19.13
2022-10-25T03:55:15.342Z,19.10
2022-10-25T03:57:43.015Z,19.06
2022-10-25T04:00:13.460Z,19.01
2022-10-25T04:02:41.213Z,18.93
2022-10-25T04:05:09.967Z,18.99
2022-10-25T04:07:37.768Z,19.01
2022-10-25T04:10:06.511Z,19.02
2022-10-25T04:12:34.202Z,19.02
2022-10-25T04:15:01.951Z,18.99
2022-10-25T04:17:32.028Z,19.01
2022-10-25T04:19:59.716Z,19.06
2022-10-25T04:22:27.681Z,19.06
2022-10-25T04:24:55.549Z,19.07
2022-10-25T04:27:23.325Z,19.08
2022-10-25T04:29:51.080Z,19.09
2022-10-25T04:34:48.902Z,18.98
2022-10-25T04:37:16.871Z,19.04
2022-10-25T04:39:44.694Z,19.04
2022-10-25T04:42:12.344Z,19.01
2022-10-25T04:44:40.108Z,19.00
2022-10-25T04:47:07.833Z,18.99
2022-10-25T04:49:35.603Z,19.00
2022-10-25T04:52:04.712Z,19.02
2022-10-25T04:54:32.463Z,19.00
2022-10-25T04:57:00.490Z,18.37
2022-10-25T04:59:28.289Z,17.56
2022-10-25T05:01:56.100Z,17.78
2022-10-25T05:04:23.877Z,18.58
2022-10-25T05:06:51.699Z,17.91
2022-10-25T05:09:20.899Z,18.12
2022-10-25T05:11:48.783Z,18.65
2022-10-25T05:14:17.755Z,17.84
2022-10-25T05:16:46.190Z,18.55
2022-10-25T05:19:14.030Z,19.01
2022-10-25T05:21:41.873Z,18.06
2022-10-25T05:24:09.666Z,18.65
2022-10-25T05:26:39.135Z,18.83
2022-10-25T05:29:10.312Z,19.00
2022-10-25T05:31:38.922Z,18.17
2022-10-25T05:34:06.829Z,17.32
2022-10-25T05:36:34.611Z,18.41
2022-10-25T05:39:02.466Z,18.06
2022-10-25T05:41:33.258Z,19.04
2022-10-25T05:44:05.887Z,19.01
2022-10-25T05:46:33.740Z,17.89
2022-10-25T05:49:01.990Z,18.83
2022-10-25T05:51:39.572Z,18.96
2022-10-25T05:54:08.357Z,18.02
2022-10-25T05:56:36.283Z,18.74
2022-10-25T05:59:08.869Z,18.88
2022-10-25T06:01:37.044Z,18.87
2022-10-25T06:04:05.424Z,18.86
2022-10-25T06:06:33.094Z,18.85
2022-10-25T06:09:01.569Z,18.72
2022-10-25T06:11:29.694Z,18.86
2022-10-25T06:13:57.524Z,18.87
2022-10-25T06:16:26.572Z,18.83
2022-10-25T06:18:54.756Z,18.83
2022-10-25T06:21:23.074Z,18.86
2022-10-25T06:23:51.062Z,18.85
2022-10-25T06:26:19.765Z,18.87
2022-10-25T06:28:47.653Z,18.89
2022-10-25T06:31:16.414Z,18.95
2022-10-25T06:33:45.764Z,18.95
2022-10-25T06:36:15.294Z,18.95
2022-10-25T06:38:43.053Z,18.90
2022-10-25T06:41:12.869Z,18.81
2022-10-25T06:43:40.722Z,18.93
2022-10-25T06:46:08.440Z,18.94
2022-10-25T06:48:37.361Z,18.71
2022-10-25T06:51:09.675Z,19.00
2022-10-25T06:53:37.675Z,19.05
2022-10-25T06:56:08.088Z,18.90
2022-10-25T06:58:38.463Z,19.04
2022-10-25T07:01:07.101Z,18.86
2022-10-25T07:03:35.790Z,19.14
2022-10-25T07:06:05.105Z,19.18
2022-10-25T07:08:42.611Z,19.21
2022-10-25T07:11:13.633Z,19.24
2022-10-25T07:13:41.441Z,19.23
2022-10-25T07:16:09.827Z,19.26
2022-10-25T07:18:37.908Z,19.27
2022-10-25T07:21:07.090Z,19.13
2022-10-25T07:23:41.824Z,19.33
2022-10-25T07:26:11.145Z,19.40
2022-10-25T07:28:38.978Z,19.47
2022-10-25T07:31:06.940Z,19.64
2022-10-25T07:33:34.854Z,19.65
2022-10-25T07:36:06.497Z,19.80
2022-10-25T07:38:38.183Z,19.92
2022-10-25T07:41:06.234Z,20.04
2022-10-25T07:43:35.325Z,20.02
2022-10-25T07:46:02.947Z,20.14
2022-10-25T07:48:30.637Z,20.12
2022-10-25T07:50:58.279Z,20.10
2022-10-25T07:53:25.967Z,20.11
2022-10-25T07:55:53.889Z,20.02
2022-10-25T07:58:21.683Z,20.14
2022-10-25T08:00:50.779Z,20.15
2022-10-25T08:03:18.976Z,20.18
2022-10-25T08:05:48.885Z,20.25
2022-10-25T08:08:17.724Z,20.23
2022-10-25T08:10:45.460Z,20.29
2022-10-25T08:13:13.183Z,20.28
2022-10-25T08:15:41.712Z,20.33
2022-10-25T08:18:10.761Z,20.38
2022-10-25T08:21:00.611Z,20.35
2022-10-25T08:23:26.294Z,20.25
2022-10-25T08:25:53.979Z,20.44
2022-10-25T08:28:21.748Z,20.60
2022-10-25T08:30:49.461Z,20.75
2022-10-25T08:33:18.602Z,21.17
2022-10-25T08:35:46.345Z,21.50
2022-10-25T08:38:14.305Z,22.23
2022-10-25T08:40:50.361Z,23.08
2022-10-25T08:43:26.674Z,24.43
2022-10-25T08:45:56.475Z,25.08
2022-10-25T08:48:27.527Z,25.69
2022-10-25T08:50:56.208Z,26.08
2022-10-25T08:53:25.065Z,26.11
2022-10-25T08:56:11.677Z,25.91
2022-10-25T08:58:49.497Z,25.47
2022-10-25T09:01:18.449Z,25.12
2022-10-25T09:03:47.914Z,24.91
2022-10-25T09:06:20.148Z,25.23
2022-10-25T09:08:55.460Z,25.95
2022-10-25T09:11:28.868Z,26.14
2022-10-25T09:13:58.867Z,25.93
2022-10-25T09:16:30.444Z,26.06
2022-10-25T09:18:59.558Z,26.34
2022-10-25T09:21:32.073Z,27.08
2022-10-25T09:24:01.012Z,27.61
2022-10-25T09:26:41.051Z,28.55
2022-10-25T09:29:13.299Z,28.84
2022-10-25T09:31:42.830Z,28.42
2022-10-25T09:34:12.014Z,28.09
2022-10-25T09:36:43.292Z,27.67
2022-10-25T09:39:16.121Z,27.16
2022-10-25T09:41:45.246Z,27.17
2022-10-25T09:44:15.185Z,27.80
2022-10-25T09:46:44.519Z,27.50
2022-10-25T09:49:19.711Z,26.93
2022-10-25T09:51:51.459Z,26.25
2022-10-25T09:54:23.426Z,25.72
2022-10-25T09:56:51.698Z,26.75
2022-10-25T09:59:19.482Z,27.25
2022-10-25T10:01:48.279Z,27.49
2022-10-25T10:04:26.242Z,28.33
2022-10-25T10:06:55.523Z,29.13
2022-10-25T10:09:23.272Z,29.92
2022-10-25T10:11:50.941Z,29.64
2022-10-25T10:14:22.089Z,29.16
2022-10-25T10:16:50.708Z,28.53
2022-10-25T10:19:19.405Z,29.27
2022-10-25T10:21:50.478Z,29.74
2022-10-25T10:24:19.511Z,29.45
2022-10-25T10:26:49.113Z,30.16
2022-10-25T10:29:19.043Z,30.78
2022-10-25T10:31:49.384Z,30.32
2022-10-25T10:34:31.022Z,30.14
2022-10-25T10:37:09.104Z,29.72
2022-10-25T10:39:36.799Z,30.40
2022-10-25T10:42:15.612Z,31.95
2022-10-25T10:44:43.857Z,32.66
2022-10-25T10:47:12.215Z,32.55
2022-10-25T10:49:42.181Z,31.87
2022-10-25T10:52:27.282Z,30.61
2022-10-25T10:54:55.013Z,29.82
2022-10-25T10:57:25.605Z,30.38
2022-10-25T10:59:54.005Z,32.75
2022-10-25T11:02:30.102Z,34.78
2022-10-25T11:04:58.164Z,36.64
2022-10-25T11:07:30.691Z,37.35
2022-10-25T11:10:19.354Z,38.37
2022-10-25T11:12:47.053Z,37.64
2022-10-25T11:15:15.276Z,37.99
2022-10-25T11:17:44.022Z,37.96
2022-10-25T11:20:20.263Z,39.21
2022-10-25T11:22:59.960Z,39.78
2022-10-25T11:25:34.539Z,39.12
2022-10-25T11:28:12.943Z,37.74
2022-10-25T11:30:42.210Z,36.28
2022-10-25T11:33:21.542Z,34.81
2022-10-25T11:36:01.774Z,33.40
2022-10-25T11:38:37.632Z,32.08
2022-10-25T11:41:07.759Z,33.43
2022-10-25T11:43:45.448Z,35.63
2022-10-25T11:46:15.642Z,35.92
2022-10-25T11:48:57.235Z,34.18
2022-10-25T11:51:30.005Z,32.48
2022-10-25T11:54:22.122Z,31.10
2022-10-25T11:56:56.364Z,29.79
2022-10-25T11:59:26.211Z,29.14
2022-10-25T12:02:05.540Z,28.36
2022-10-25T12:04:52.703Z,28.07
2022-10-25T12:07:23.600Z,27.55
2022-10-25T12:09:59.020Z,26.74
2022-10-25T12:12:33.384Z,26.78
2022-10-25T12:15:01.257Z,26.39
2022-10-25T12:17:30.519Z,26.05
2022-10-25T12:19:58.823Z,26.53
2022-10-25T12:22:30.188Z,26.55
2022-10-25T12:25:00.635Z,26.50
2022-10-25T12:27:28.599Z,26.12
2022-10-25T12:29:57.788Z,26.09
2022-10-25T12:32:28.881Z,26.09
2022-10-25T12:34:56.944Z,25.88
2022-10-25T12:37:28.038Z,25.26
2022-10-25T12:39:55.879Z,25.46
2022-10-25T12:42:25.906Z,25.20
2022-10-25T12:45:02.319Z,25.13
2022-10-25T12:47:39.918Z,25.09
2022-10-25T12:50:29.640Z,25.12
2022-10-25T12:53:23.197Z,25.02
2022-10-25T12:55:54.776Z,24.72
2022-10-25T12:58:34.080Z,24.76
2022-10-25T13:01:08.310Z,24.59
2022-10-25T13:03:53.469Z,24.51
2022-10-25T13:06:29.353Z,23.81
2022-10-25T13:09:01.024Z,24.46
2022-10-25T13:11:33.427Z,24.46
2022-10-25T13:14:02.680Z,24.40
2022-10-25T13:16:30.978Z,24.31
2022-10-25T13:19:53.118Z,24.48
2022-10-25T13:22:35.690Z,24.44
2022-10-25T13:25:06.918Z,24.43
2022-10-25T13:27:35.851Z,24.48
2022-10-25T13:30:27.436Z,24.48
2022-10-25T13:33:27.633Z,24.36
2022-10-25T13:36:03.393Z,24.31
2022-10-25T13:38:35.374Z,24.04
2022-10-25T13:41:16.654Z,24.26
2022-10-25T13:43:59.086Z,24.31
2022-10-25T13:46:31.477Z,24.34
2022-10-25T13:49:01.093Z,24.31
2022-10-25T13:51:28.738Z,24.32
2022-10-25T13:53:56.406Z,24.14
2022-10-25T13:56:34.737Z,24.08
2022-10-25T13:59:02.706Z,24.09
2022-10-25T14:01:56.639Z,24.11
2022-10-25T14:04:35.001Z,23.74
2022-10-25T14:07:39.771Z,24.09
2022-10-25T14:10:08.383Z,24.07
2022-10-25T14:12:36.109Z,24.03
2022-10-25T14:15:04.672Z,23.93
2022-10-25T14:17:35.277Z,23.90
2022-10-25T14:20:03.357Z,23.77
2022-10-25T14:22:34.431Z,23.65
2022-10-25T14:25:03.370Z,23.56
2022-10-25T14:27:32.043Z,23.38
2022-10-25T14:30:24.314Z,23.20
2022-10-25T14:32:55.414Z,23.24
2022-10-25T14:35:23.411Z,23.21
2022-10-25T14:37:51.099Z,23.19
2022-10-25T14:40:23.345Z,23.22
2022-10-25T14:42:51.344Z,23.24
2022-10-25T14:45:21.324Z,23.25
2022-10-25T14:47:49.058Z,23.15
2022-10-25T14:50:18.304Z,22.99
2022-10-25T14:52:46.445Z,22.80
2022-10-25T14:55:19.255Z,23.15
2022-10-25T14:57:47.122Z,23.02
2022-10-25T15:00:19.129Z,22.87
2022-10-25T15:02:47.284Z,23.03
2022-10-25T15:05:18.025Z,22.95
2022-10-25T15:07:46.910Z,22.66
2022-10-25T15:10:37.925Z,22.87
2022-10-25T15:13:06.674Z,22.72
2022-10-25T15:15:36.135Z,22.64
2022-10-25T15:18:03.947Z,22.65
2022-10-25T15:20:34.424Z,22.28
2022-10-25T15:23:03.396Z,22.39
2022-10-25T15:25:32.187Z,22.30
2022-10-25T15:28:09.863Z,22.41
2022-10-25T15:30:38.568Z,22.32
2022-10-25T15:33:07.186Z,22.23
2022-10-25T15:35:39.847Z,22.06
2022-10-25T15:38:09.714Z,22.03
2022-10-25T15:40:38.679Z,21.97
2022-10-25T15:43:06.366Z,21.89
2022-10-25T15:45:34.335Z,21.65
2022-10-25T15:48:02.080Z,21.74
2022-10-25T15:50:29.986Z,21.76
2022-10-25T15:52:59.226Z,21.69
2022-10-25T15:55:27.970Z,21.62
2022-10-25T15:57:55.995Z,21.65
2022-10-25T16:00:27.962Z,21.67
2022-10-25T16:02:56.208Z,21.35
2022-10-25T16:05:25.640Z,21.48
2022-10-25T16:07:53.397Z,21.53
2022-10-25T16:10:23.979Z,21.17
2022-10-25T16:12:57.138Z,21.33
2022-10-25T16:15:27.160Z,21.38
2022-10-25T16:17:55.868Z,21.28
2022-10-25T16:20:24.393Z,21.31
2022-10-25T16:22:52.163Z,21.30
2022-10-25T16:25:21.726Z,21.26
2022-10-25T16:27:49.363Z,21.02
2022-10-25T16:30:18.472Z,21.09
2022-10-25T16:32:46.430Z,20.95
2022-10-25T16:35:15.798Z,20.86
2022-10-25T16:37:43.587Z,20.78
2022-10-25T16:40:14.708Z,20.67
2022-10-25T16:42:44.114Z,20.53
2022-10-25T16:45:14.949Z,20.43
2022-10-25T16:47:42.643Z,20.32
2022-10-25T16:50:10.366Z,20.16
2022-10-25T16:52:38.132Z,20.15
2022-10-25T16:55:06.765Z,20.05
2022-10-25T16:57:34.615Z,19.98
2022-10-25T17:00:04.116Z,19.89
2022-10-25T17:02:32.012Z,19.83
2022-10-25T17:05:00.414Z,19.73
2022-10-25T17:07:28.102Z,19.77
2022-10-25T17:09:56.722Z,19.62
2022-10-25T17:12:24.478Z,19.55
2022-10-25T17:14:52.137Z,19.52
2022-10-25T17:19:54.758Z,19.41
2022-10-25T17:22:23.680Z,19.32
2022-10-25T17:24:52.215Z,19.06
2022-10-25T17:27:20.047Z,19.18
2022-10-25T17:29:48.005Z,19.13
2022-10-25T17:32:15.961Z,19.09
2022-10-25T17:34:45.257Z,19.10
2022-10-25T17:37:13.072Z,19.05
2022-10-25T17:39:41.153Z,19.08
2022-10-25T17:42:09.063Z,19.07
2022-10-25T17:44:37.161Z,19.03
2022-10-25T17:47:05.075Z,19.06
2022-10-25T17:49:34.237Z,19.05
2022-10-25T17:52:03.624Z,18.98
2022-10-25T17:54:31.551Z,18.98
2022-10-25T17:57:01.111Z,18.95
2022-10-25T17:59:29.003Z,18.90
2022-10-25T18:01:56.846Z,18.83
2022-10-25T18:04:24.648Z,18.80
2022-10-25T18:06:52.527Z,18.74
2022-10-25T18:09:21.694Z,18.69
2022-10-25T18:11:49.576Z,18.59
2022-10-25T18:14:17.323Z,18.56
2022-10-25T18:16:45.235Z,18.49
2022-10-25T18:19:14.720Z,18.43
2022-10-25T18:21:42.726Z,18.36
2022-10-25T18:24:13.045Z,18.31
2022-10-25T18:26:42.760Z,18.28
2022-10-25T18:29:11.083Z,17.65
2022-10-25T18:31:38.968Z,18.21
2022-10-25T18:34:06.989Z,18.17
2022-10-25T18:36:34.857Z,18.16
2022-10-25T18:39:03.029Z,18.06
2022-10-25T18:41:31.749Z,18.10
2022-10-25T18:44:02.426Z,18.03
2022-10-25T18:46:31.896Z,17.70
2022-10-25T18:48:59.846Z,17.94
2022-10-25T18:51:28.837Z,17.82
2022-10-25T18:53:56.764Z,17.83
2022-10-25T18:56:24.974Z,17.46
2022-10-25T18:58:53.930Z,17.74
2022-10-25T19:01:24.490Z,17.61
2022-10-25T19:03:52.845Z,17.63
2022-10-25T19:06:20.965Z,17.60
2022-10-25T19:08:49.533Z,17.54
2022-10-25T19:11:17.577Z,17.50
2022-10-25T19:13:48.938Z,17.48
2022-10-25T19:16:19.253Z,17.45
2022-10-25T19:18:48.571Z,17.23
2022-10-25T19:21:18.422Z,17.19
2022-10-25T19:23:46.623Z,16.74
2022-10-25T19:26:15.799Z,17.13
2022-10-25T19:28:43.763Z,17.30
2022-10-25T19:31:13.123Z,17.25
2022-10-25T19:33:41.235Z,17.18
2022-10-25T19:36:11.431Z,17.21
2022-10-25T19:38:39.468Z,17.20
2022-10-25T19:41:08.160Z,16.94
2022-10-25T19:43:36.185Z,17.16
2022-10-25T19:46:05.686Z,17.13
2022-10-25T19:48:33.862Z,16.96
2022-10-25T19:51:05.228Z,17.12
2022-10-25T19:53:34.517Z,17.14
2022-10-25T19:56:02.534Z,17.15
2022-10-25T19:58:30.589Z,17.17
2022-10-25T20:01:06.369Z,17.17
2022-10-25T20:03:34.105Z,17.17
2022-10-25T20:06:03.883Z,17.15
2022-10-25T20:08:34.415Z,17.16
2022-10-25T20:11:02.393Z,17.14
2022-10-25T20:13:30.258Z,17.17
2022-10-25T20:15:58.248Z,17.17
2022-10-25T20:18:28.906Z,17.16
2022-10-25T20:20:58.524Z,16.90
2022-10-25T20:23:26.513Z,17.11
2022-10-25T20:25:56.728Z,17.05
2022-10-25T20:28:24.603Z,17.10
2022-10-25T20:30:52.631Z,17.07
2022-10-25T20:33:21.128Z,17.06
2022-10-25T20:35:48.945Z,17.05
2022-10-25T20:38:16.957Z,17.07
2022-10-25T20:40:45.359Z,17.03
2022-10-25T20:43:14.674Z,17.01
2022-10-25T20:45:44.031Z,17.03
2022-10-25T20:48:11.939Z,17.02
2022-10-25T20:50:42.443Z,17.00
2022-10-25T20:53:11.000Z,16.96
2022-10-25T20:55:39.028Z,17.00
2022-10-25T20:58:06.791Z,16.98
2022-10-25T21:00:35.943Z,16.94
2022-10-25T21:03:03.564Z,16.98
2022-10-25T21:05:31.588Z,16.95
2022-10-25T21:07:59.229Z,16.96
2022-10-25T21:10:27.263Z,16.96
2022-10-25T21:12:54.945Z,16.94
2022-10-25T21:15:22.636Z,16.94
2022-10-25T21:17:51.852Z,16.88
2022-10-25T21:20:19.755Z,16.92
2022-10-25T21:22:47.889Z,16.89
2022-10-25T21:25:15.811Z,16.61
2022-10-25T21:27:43.568Z,16.87
2022-10-25T21:30:11.887Z,16.86
2022-10-25T21:32:39.526Z,16.85
2022-10-25T21:35:09.386Z,16.83
2022-10-25T21:37:37.014Z,16.79
2022-10-25T21:40:05.293Z,16.83
2022-10-25T21:42:32.949Z,16.80
2022-10-25T21:45:00.775Z,16.78
2022-10-25T21:47:28.429Z,16.75
2022-10-25T21:49:56.842Z,16.73
2022-10-25T21:52:25.930Z,16.64
2022-10-25T21:54:53.645Z,16.68
2022-10-25T21:57:21.297Z,16.62
2022-10-25T21:59:49.086Z,16.61
2022-10-25T22:02:16.969Z,16.60
2022-10-25T22:04:44.980Z,16.56
2022-10-25T22:07:12.622Z,16.48
2022-10-25T22:09:41.678Z,16.50
2022-10-25T22:12:09.333Z,16.48
2022-10-25T22:14:37.090Z,16.46
2022-10-25T22:17:04.723Z,16.45
2022-10-25T22:19:32.511Z,16.39
2022-10-25T22:22:00.160Z,16.42
2022-10-25T22:24:27.934Z,16.38
2022-10-25T22:26:56.960Z,16.38
2022-10-25T22:29:24.701Z,16.40
2022-10-25T22:34:26.375Z,16.38
2022-10-25T22:36:54.104Z,16.37
2022-10-25T22:39:21.989Z,16.39
2022-10-25T22:41:52.677Z,16.40
2022-10-25T22:46:54.487Z,16.37
2022-10-25T22:49:22.838Z,16.39
2022-10-25T22:51:50.502Z,16.34
2022-10-25T22:54:18.300Z,16.34
2022-10-25T22:56:46.003Z,16.36
2022-10-25T22:59:13.815Z,16.38
2022-10-25T23:01:42.914Z,16.39
2022-10-25T23:04:11.109Z,16.40
2022-10-25T23:06:39.685Z,16.16
2022-10-25T23:09:08.978Z,16.36
2022-10-25T23:11:37.433Z,16.42
2022-10-25T23:14:07.355Z,16.44
2022-10-25T23:16:35.056Z,16.45
2022-10-25T23:19:04.452Z,16.45
2022-10-25T23:21:32.179Z,16.20
2022-10-25T23:24:00.425Z,16.45
2022-10-25T23:26:29.598Z,16.48
2022-10-25T23:28:57.674Z,16.51
2022-10-25T23:31:25.458Z,16.55
2022-10-25T23:33:53.845Z,16.58
2022-10-25T23:36:23.967Z,16.61
2022-10-25T23:38:52.135Z,16.41
2022-10-25T23:41:20.108Z,16.72
2022-10-25T23:43:47.926Z,16.45
2022-10-25T23:46:15.538Z,16.83
2022-10-25T23:48:43.538Z,16.89
2022-10-25T23:51:12.506Z,16.87
2022-10-25T23:53:41.701Z,17.00
2022-10-25T23:56:10.435Z,17.07
2022-10-25T23:58:38.293Z,17.08
